Time;durP1;ratioP1;P1;durP2;ratioP2;P2;SDS_P1;SDS_P2;PMS_P1;PMS_P2;Temp;Humidity;BMP_temperature;BMP_pressure;BME280_temperature;BME280_humidity;BME280_pressure;Samples;Min_cycle;Max_cycle;Signal;HPM_P1;HPM_P2
2023/03/25 00:00:56;;;;;;;8.88;2.47;;;;;;;8.86;91.67;100074.63;5036659;28;20026;-78
2023/03/25 00:03:23;;;;;;;13.88;3.13;;;;;;;8.87;90.60;100073.63;5038611;28;20071;-78
2023/03/25 00:05:48;;;;;;;9.77;2.55;;;;;;;8.87;90.76;100076.31;5042408;28;20059;-78
2023/03/25 00:08:14;;;;;;;13.80;3.40;;;;;;;8.88;90.89;100075.34;5035376;28;20029;-78
2023/03/25 00:10:39;;;;;;;12.63;2.70;;;;;;;8.90;90.87;100081.44;5038442;28;20194;-78
2023/03/25 00:13:07;;;;;;;11.88;2.97;;;;;;;8.87;90.70;100071.84;5038341;28;20037;-78
2023/03/25 00:15:35;;;;;;;15.10;2.67;;;;;;;8.86;90.69;100086.19;5044506;28;20581;-78
2023/03/25 00:18:00;;;;;;;14.35;2.67;;;;;;;8.86;90.01;100074.63;5036945;28;20385;-78
2023/03/25 00:20:26;;;;;;;13.13;2.65;;;;;;;8.86;90.16;100080.00;5048856;28;20071;-78
2023/03/25 00:22:53;;;;;;;11.32;2.33;;;;;;;8.86;90.23;100074.63;5042535;28;20033;-78
2023/03/25 00:25:19;;;;;;;15.65;3.10;;;;;;;8.86;89.31;100070.13;5034331;28;20025;-78
2023/03/25 00:27:46;;;;;;;18.42;2.83;;;;;;;8.83;89.29;100070.38;5017338;28;20026;-78
2023/03/25 00:30:16;;;;;;;11.35;2.80;;;;;;;8.81;89.35;100064.25;5037369;28;20033;-78
2023/03/25 00:32:44;;;;;;;;;;;;;;;8.87;89.74;100065.59;5029542;28;20526;-78
2023/03/25 00:35:09;;;;;;;8.88;1.92;;;;;;;8.82;89.45;100062.44;5042218;28;20283;-78
2023/03/25 00:37:35;;;;;;;13.73;2.70;;;;;;;8.82;89.15;100067.81;5046087;28;20017;-78
2023/03/25 00:40:01;;;;;;;10.60;2.40;;;;;;;8.81;89.21;100066.94;5023597;28;20036;-78
2023/03/25 00:42:28;;;;;;;12.43;2.53;;;;;;;8.82;88.16;100067.81;5034763;28;20481;-78
2023/03/25 00:44:53;;;;;;;13.02;2.90;;;;;;;8.81;89.02;100055.38;5041961;28;20120;-78
2023/03/25 00:47:20;;;;;;;11.68;2.80;;;;;;;8.80;88.64;100064.38;5036717;28;20035;-78
2023/03/25 00:49:47;;;;;;;12.32;2.92;;;;;;;8.79;88.68;100057.34;5033064;28;20329;-78
2023/03/25 00:52:13;;;;;;;9.70;2.30;;;;;;;8.77;88.42;100060.13;5030768;28;20028;-78
2023/03/25 00:54:38;;;;;;;19.63;3.40;;;;;;;8.78;88.84;100064.50;5037636;28;20116;-78
2023/03/25 00:57:03;;;;;;;12.85;2.65;;;;;;;8.78;88.64;100058.28;5035139;28;20133;-77
2023/03/25 00:59:29;;;;;;;12.25;2.92;;;;;;;8.77;88.50;100052.09;5039063;28;20021;-78
2023/03/25 01:01:55;;;;;;;9.95;2.63;;;;;;;8.76;89.49;100063.78;5030934;28;20560;-78
2023/03/25 01:04:20;;;;;;;12.95;2.70;;;;;;;8.74;89.28;100050.50;5042103;28;20033;-78
2023/03/25 01:06:50;;;;;;;8.73;2.40;;;;;;;8.72;89.39;100057.78;5037728;28;20010;-78
2023/03/25 01:09:16;;;;;;;;;;;;;;;8.77;88.70;100059.25;5035603;28;20491;-78
2023/03/25 01:11:45;;;;;;;14.43;3.15;;;;;;;8.67;89.57;100060.00;5037453;28;19917;-78
2023/03/25 01:14:16;;;;;;;10.27;2.90;;;;;;;8.66;89.22;100063.63;5033986;28;20021;-78
2023/03/25 01:16:42;;;;;;;12.70;2.70;;;;;;;8.66;89.14;100044.88;5036898;28;20081;-78
2023/03/25 01:19:09;;;;;;;8.93;2.65;;;;;;;8.65;90.21;100051.19;5032185;28;20394;-78
2023/03/25 01:21:35;;;;;;;11.90;2.83;;;;;;;8.65;89.96;100067.28;5039559;28;20129;-78
2023/03/25 01:24:05;;;;;;;8.63;2.20;;;;;;;8.64;89.93;100065.59;5033314;28;20083;-78
2023/03/25 01:26:30;;;;;;;;;;;;;;;8.69;89.89;100060.72;5033756;28;20388;-78
2023/03/25 01:28:56;;;;;;;8.70;2.40;;;;;;;8.63;89.87;100057.69;5019033;28;19979;-78
2023/03/25 01:31:21;;;;;;;12.20;2.88;;;;;;;8.62;90.18;100059.47;5041043;28;20429;-78
2023/03/25 01:33:48;;;;;;;14.55;2.88;;;;;;;8.58;90.25;100063.41;5045140;28;20083;-78
2023/03/25 01:36:14;;;;;;;8.23;2.28;;;;;;;8.58;90.21;100060.72;5029983;28;20030;-78
2023/03/25 01:38:40;;;;;;;9.57;2.70;;;;;;;8.57;90.67;100059.00;5032377;28;20496;-78
2023/03/25 01:41:06;;;;;;;9.75;2.40;;;;;;;8.57;90.11;100075.06;5031332;28;20036;-78
2023/03/25 01:43:32;;;;;;;16.98;3.05;;;;;;;8.57;90.63;100059.00;5023731;28;20037;-78
2023/03/25 01:45:58;;;;;;;10.05;2.65;;;;;;;8.59;91.30;100073.13;5031364;28;20037;-78
2023/03/25 01:48:38;;;;;;;9.07;2.63;;;;;;;8.55;91.02;100048.41;5035488;28;20173;-78
2023/03/25 01:51:15;;;;;;;12.48;2.42;;;;;;;8.55;91.73;100050.22;5038772;28;20025;-78
2023/03/25 01:53:41;;;;;;;11.13;2.45;;;;;;;8.52;90.73;100051.31;5030834;28;20025;-78
2023/03/25 01:56:10;;;;;;;7.68;2.60;;;;;;;8.52;90.56;100050.47;5033030;28;20446;-78
2023/03/25 01:58:36;;;;;;;9.35;2.40;;;;;;;8.51;90.37;100044.25;5038920;28;20111;-78
2023/03/25 02:01:02;;;;;;;8.68;2.30;;;;;;;8.49;90.36;100053.38;5038371;28;20037;-78
2023/03/25 02:03:30;;;;;;;10.52;2.60;;;;;;;8.49;90.37;100048.03;5020706;28;20026;-78
2023/03/25 02:05:58;;;;;;;11.65;2.53;;;;;;;8.49;90.40;100074.81;5027960;28;20059;-78
2023/03/25 02:08:24;;;;;;;11.70;2.20;;;;;;;8.49;90.36;100051.56;5030635;28;20033;-78
2023/03/25 02:10:51;;;;;;;13.57;2.78;;;;;;;8.50;91.62;100047.06;5040502;28;20028;-78
2023/03/25 02:13:17;;;;;;;7.95;2.03;;;;;;;8.49;92.36;100046.22;5028105;28;20040;-78
2023/03/25 02:16:22;;;;;;;10.23;2.47;;;;;;;8.52;92.24;100039.75;5030647;28;20024;-78
2023/03/25 02:19:21;;;;;;;8.70;2.53;;;;;;;8.49;92.08;100042.66;5034092;28;20075;-78
2023/03/25 02:21:58;;;;;;;14.52;2.90;;;;;;;8.51;92.02;100030.03;5023867;28;20045;-78
2023/03/25 02:24:28;;;;;;;10.88;2.30;;;;;;;8.48;91.80;100038.31;5035427;28;20140;-78
2023/03/25 02:27:12;;;;;;;9.53;2.50;;;;;;;8.48;91.64;100040.97;5041578;28;20104;-78
2023/03/25 02:30:09;;;;;;;11.55;3.33;;;;;;;8.47;91.50;100042.78;5042981;28;20028;-78
2023/03/25 02:33:05;;;;;;;9.82;2.40;;;;;;;8.47;91.66;100045.47;5034796;28;20021;-78
2023/03/25 02:36:29;;;;;;;8.30;2.60;;;;;;;8.49;92.05;100037.31;5037380;28;20029;-78
2023/03/25 02:39:07;;;;;;;17.70;2.92;;;;;;;8.45;91.15;100047.41;5010059;28;20141;-78
2023/03/25 02:41:48;;;;;;;7.55;2.33;;;;;;;8.44;91.69;100036.78;5022632;28;20639;-78
2023/03/25 02:44:17;;;;;;;8.35;2.70;;;;;;;8.43;92.38;100035.91;5008739;28;20612;-78
2023/03/25 02:46:52;;;;;;;13.30;2.70;;;;;;;8.43;92.71;100035.09;5014761;28;20448;-78
2023/03/25 02:49:26;;;;;;;7.63;2.47;;;;;;;8.42;93.12;100044.06;5020380;28;20222;-78
2023/03/25 02:51:59;;;;;;;10.20;2.38;;;;;;;8.41;95.03;100040.56;5024630;28;20530;-78
2023/03/25 02:54:26;;;;;;;10.13;2.38;;;;;;;8.38;96.18;100032.75;5010951;28;20053;-78
2023/03/25 02:56:56;;;;;;;8.23;2.63;;;;;;;8.34;96.95;100042.84;4995231;28;20529;-78
2023/03/25 02:59:28;;;;;;;17.67;3.25;;;;;;;8.32;96.96;100028.72;4998591;28;20076;-78
2023/03/25 03:01:57;;;;;;;12.63;2.78;;;;;;;8.30;97.29;100040.53;5021799;28;20112;-78
2023/03/25 03:04:24;;;;;;;14.10;3.22;;;;;;;8.28;97.93;100032.59;5005605;28;20521;-77
2023/03/25 03:06:49;;;;;;;11.43;2.53;;;;;;;8.27;97.84;100030.06;4998091;28;20025;-78
2023/03/25 03:09:31;;;;;;;9.95;2.80;;;;;;;8.25;98.04;100030.16;5028967;28;20102;-78
2023/03/25 03:12:13;;;;;;;17.05;3.75;;;;;;;8.24;97.89;100031.13;5025298;28;20014;-77
2023/03/25 03:15:05;;;;;;;18.63;3.22;;;;;;;8.25;97.94;100027.50;5019749;28;20069;-77
2023/03/25 03:18:08;;;;;;;13.80;3.00;;;;;;;8.25;98.32;100016.78;5043785;28;20132;-77
2023/03/25 03:20:48;;;;;;;14.07;3.20;;;;;;;8.22;98.32;100009.84;5039630;28;20630;-77
2023/03/25 03:23:32;;;;;;;11.50;2.75;;;;;;;8.25;99.04;100016.78;5040677;28;20036;-77
2023/03/25 03:26:42;;;;;;;17.83;3.08;;;;;;;8.25;99.35;100021.31;5031653;28;20512;-77
2023/03/25 03:29:25;;;;;;;17.02;3.28;;;;;;;8.21;98.04;100015.31;5032997;28;20101;-77
2023/03/25 03:32:15;;;;;;;15.57;3.00;;;;;;;8.19;99.01;100027.97;5019925;28;20021;-77
2023/03/25 03:35:00;;;;;;;15.38;3.00;;;;;;;8.20;97.73;100011.78;5035447;28;20033;-78
2023/03/25 03:37:33;;;;;;;10.80;2.65;;;;;;;8.18;98.20;100018.22;5037714;28;20163;-77
2023/03/25 03:40:02;;;;;;;15.07;3.08;;;;;;;8.19;97.46;100030.66;5030320;28;20040;-78
2023/03/25 03:42:42;;;;;;;14.13;2.88;;;;;;;8.19;97.30;100018.09;5039996;28;20044;-78
2023/03/25 03:45:15;;;;;;;12.05;2.67;;;;;;;8.18;96.39;100023.56;5021492;28;20093;-77
2023/03/25 03:47:46;;;;;;;14.50;3.40;;;;;;;8.18;97.25;100026.25;5035202;28;20029;-77
2023/03/25 03:50:17;;;;;;;10.60;2.85;;;;;;;8.18;97.51;100012.88;5039972;28;20396;-77
2023/03/25 03:52:56;;;;;;;9.02;2.70;;;;;;;8.17;97.75;100019.19;5041876;28;20082;-77
2023/03/25 03:56:18;;;;;;;15.18;3.83;;;;;;;8.17;97.58;100017.38;5034050;28;20045;-77
2023/03/25 03:58:45;;;;;;;13.90;3.05;;;;;;;8.11;97.26;100011.63;5012333;28;20431;-77
2023/03/25 04:01:46;;;;;;;14.98;2.72;;;;;;;8.08;97.44;100011.88;5023653;28;20045;-78
2023/03/25 04:04:19;;;;;;;14.73;2.58;;;;;;;8.06;97.85;100017.34;5011036;28;20053;-77
2023/03/25 04:06:55;;;;;;;11.75;2.80;;;;;;;8.07;97.39;100023.53;5026239;28;20061;-77
2023/03/25 04:09:54;;;;;;;13.35;2.38;;;;;;;8.07;97.36;100015.50;5008148;28;20117;-78
2023/03/25 04:12:27;;;;;;;10.55;2.60;;;;;;;8.08;97.33;100026.09;4995475;28;20061;-78
2023/03/25 04:14:54;;;;;;;12.13;2.88;;;;;;;8.06;97.22;100033.41;5021253;28;20033;-77
2023/03/25 04:17:21;;;;;;;10.25;2.70;;;;;;;8.04;96.78;100017.47;4997554;28;20034;-77
2023/03/25 04:19:47;;;;;;;18.33;3.05;;;;;;;8.03;96.39;100018.41;5017527;28;20071;-77
2023/03/25 04:22:17;;;;;;;15.85;2.75;;;;;;;8.02;96.64;100030.13;4990023;28;20113;-77
2023/03/25 04:24:42;;;;;;;14.45;2.97;;;;;;;8.03;96.95;100014.91;5002203;28;20040;-77
2023/03/25 04:27:12;;;;;;;13.55;2.92;;;;;;;8.02;97.05;100019.41;5002812;28;20374;-77
2023/03/25 04:29:39;;;;;;;9.70;2.47;;;;;;;8.01;96.99;100024.88;5020542;28;20387;-78
2023/03/25 04:32:04;;;;;;;15.00;3.50;;;;;;;7.99;97.71;100016.09;5005115;28;20034;-78
2023/03/25 04:34:29;;;;;;;12.02;1.90;;;;;;;7.98;97.18;100015.25;5032002;28;20512;-77
2023/03/25 04:36:55;;;;;;;10.95;2.50;;;;;;;7.98;97.06;100006.34;5041213;28;20035;-77
2023/03/25 04:39:24;;;;;;;10.40;2.30;;;;;;;7.98;97.64;100025.97;5037027;28;20088;-77
2023/03/25 04:41:52;;;;;;;9.43;2.38;;;;;;;8.00;97.32;100023.16;5029104;28;20357;-78
2023/03/25 04:44:20;;;;;;;9.70;2.33;;;;;;;7.99;97.39;100034.84;5045345;28;20052;-78
2023/03/25 04:46:46;;;;;;;9.50;3.05;;;;;;;7.98;97.97;100042.03;5036820;28;20067;-77
2023/03/25 04:49:19;;;;;;;11.35;2.83;;;;;;;7.98;98.52;100034.00;5031392;28;20033;-78
2023/03/25 04:51:48;;;;;;;7.80;2.17;;;;;;;7.98;98.94;100030.44;5033875;28;20380;-77
2023/03/25 04:54:13;;;;;;;12.10;2.78;;;;;;;7.97;98.64;100024.25;5035901;28;20411;-77
2023/03/25 04:56:39;;;;;;;8.75;2.10;;;;;;;7.99;98.80;100022.28;5042378;28;20031;-77
2023/03/25 04:59:05;;;;;;;15.43;3.00;;;;;;;7.99;99.29;100022.28;5037778;28;20025;-77
2023/03/25 05:01:30;;;;;;;12.10;2.55;;;;;;;7.97;98.84;100031.44;5039405;28;20393;-77
2023/03/25 05:04:03;;;;;;;13.02;2.92;;;;;;;7.96;98.41;100030.56;5040601;28;20064;-78
2023/03/25 05:06:29;;;;;;;10.45;2.67;;;;;;;7.97;98.76;100024.25;5042941;28;20102;-78
2023/03/25 05:08:54;;;;;;;13.55;2.88;;;;;;;7.96;99.97;100032.41;5031820;28;20022;-77
2023/03/25 05:11:19;;;;;;;14.00;2.83;;;;;;;7.96;100.00;100014.50;5031334;28;20013;-77
2023/03/25 05:13:45;;;;;;;13.32;2.63;;;;;;;7.93;100.00;100012.06;5035449;28;20029;-78
2023/03/25 05:16:10;;;;;;;13.35;2.55;;;;;;;7.92;99.92;100010.38;5037104;28;20123;-77
2023/03/25 05:18:35;;;;;;;10.02;2.10;;;;;;;7.93;100.00;100013.91;5042334;28;20048;-78
2023/03/25 05:21:01;;;;;;;10.48;2.20;;;;;;;7.92;99.87;100013.06;5034583;28;20056;-77
2023/03/25 05:23:27;;;;;;;11.52;2.60;;;;;;;7.91;100.00;100019.38;5045709;28;20025;-77
2023/03/25 05:25:52;;;;;;;11.82;2.67;;;;;;;7.91;100.00;100019.38;5036615;28;20143;-77
2023/03/25 05:28:18;;;;;;;11.30;2.67;;;;;;;7.92;99.53;100042.50;5035564;28;20036;-77
2023/03/25 05:30:45;;;;;;;12.73;2.97;;;;;;;7.93;98.79;100032.63;5039366;28;20025;-77
2023/03/25 05:33:16;;;;;;;12.43;2.70;;;;;;;7.93;98.82;100038.81;5038950;28;20109;-77
2023/03/25 05:35:42;;;;;;;11.20;2.92;;;;;;;7.94;97.49;100045.03;5029066;28;20037;-77
2023/03/25 05:38:11;;;;;;;18.50;3.03;;;;;;;7.94;97.70;100035.19;5028553;28;20133;-77
2023/03/25 05:40:37;;;;;;;13.25;2.85;;;;;;;7.96;97.03;100043.09;5031851;28;20026;-77
2023/03/25 05:43:02;;;;;;;14.45;2.97;;;;;;;7.97;97.26;100032.28;5041178;28;20388;-77
2023/03/25 05:45:29;;;;;;;9.00;2.60;;;;;;;7.96;96.62;100035.91;5038570;28;20033;-77
2023/03/25 05:47:54;;;;;;;13.52;2.90;;;;;;;7.97;95.04;100037.63;5039708;28;20018;-77
2023/03/25 05:50:20;;;;;;;9.52;2.72;;;;;;;7.97;95.40;100034.94;5035896;28;20037;-77
2023/03/25 05:52:48;;;;;;;10.30;2.35;;;;;;;7.95;95.11;100034.22;5040332;28;20111;-77
2023/03/25 05:55:20;;;;;;;12.68;3.15;;;;;;;7.94;95.03;100050.41;5035654;28;20117;-77
2023/03/25 05:57:45;;;;;;;9.38;2.47;;;;;;;7.94;95.65;100051.25;5034876;28;20033;-77
2023/03/25 06:00:12;;;;;;;10.02;2.30;;;;;;;7.94;95.09;100045.88;5023497;28;20106;-78
2023/03/25 06:02:38;;;;;;;12.98;2.65;;;;;;;7.93;94.81;100049.53;5034403;28;20081;-77
2023/03/25 06:05:08;;;;;;;13.65;3.10;;;;;;;7.93;94.37;100062.06;5032835;28;20041;-77
2023/03/25 06:07:36;;;;;;;12.60;2.95;;;;;;;7.91;94.44;100078.22;5042373;28;20025;-77
2023/03/25 06:10:02;;;;;;;11.30;2.50;;;;;;;7.91;94.03;100067.53;5042994;28;20029;-77
2023/03/25 06:12:31;;;;;;;13.55;2.63;;;;;;;7.90;94.09;100073.84;5028263;28;20017;-77
2023/03/25 06:14:58;;;;;;;10.23;2.35;;;;;;;7.91;94.83;100067.53;5026525;28;20050;-77
2023/03/25 06:17:24;;;;;;;11.98;2.45;;;;;;;7.93;94.00;100075.44;5043437;28;20032;-77
2023/03/25 06:19:50;;;;;;;10.27;2.75;;;;;;;7.92;94.23;100076.41;5024051;28;20026;-77
2023/03/25 06:22:19;;;;;;;13.65;3.70;;;;;;;7.93;94.38;100075.44;5025995;28;20389;-77
2023/03/25 06:24:45;;;;;;;20.90;3.83;;;;;;;7.94;94.06;100075.31;5025349;28;20022;-77
2023/03/25 06:27:13;;;;;;;12.05;2.92;;;;;;;7.94;93.47;100069.13;5029323;28;20076;-77
2023/03/25 06:29:42;;;;;;;15.07;3.20;;;;;;;7.94;92.58;100069.97;5034431;28;20391;-77
2023/03/25 06:32:09;;;;;;;13.27;2.72;;;;;;;7.95;92.17;100063.66;5036102;28;20037;-77
2023/03/25 06:34:34;;;;;;;16.25;2.97;;;;;;;7.98;92.91;100075.94;5039544;28;20437;-77
2023/03/25 06:37:00;;;;;;;16.33;2.92;;;;;;;8.00;92.29;100060.63;5035280;28;20021;-77
2023/03/25 06:39:30;;;;;;;14.95;3.35;;;;;;;8.00;92.40;100077.53;5037666;28;20033;-77
2023/03/25 06:41:56;;;;;;;13.15;3.17;;;;;;;8.04;91.46;100067.47;5021114;28;20025;-78
2023/03/25 06:44:22;;;;;;;21.45;3.47;;;;;;;8.07;91.25;100072.59;5027205;28;20025;-77
2023/03/25 06:46:47;;;;;;;18.40;4.10;;;;;;;8.14;91.41;100083.66;5040781;28;20036;-78
2023/03/25 06:49:12;;;;;;;14.82;2.65;;;;;;;8.18;90.85;100085.97;5026667;28;20033;-77
2023/03/25 06:51:37;;;;;;;13.10;3.58;;;;;;;8.23;91.04;100088.34;5033433;28;20025;-77
2023/03/25 06:54:03;;;;;;;23.27;3.08;;;;;;;8.27;91.93;100084.44;5035587;28;20033;-77
2023/03/25 06:56:28;;;;;;;13.77;3.53;;;;;;;8.30;91.64;100094.94;5022824;28;20053;-77
2023/03/25 06:58:54;;;;;;;12.02;4.18;;;;;;;8.33;91.22;100094.69;5032139;28;20036;-77
2023/03/25 07:01:19;;;;;;;21.90;4.32;;;;;;;8.38;92.24;100095.19;5043522;28;20030;-78
2023/03/25 07:03:44;;;;;;;17.92;4.25;;;;;;;8.42;91.08;100086.91;5048631;28;20491;-78
2023/03/25 07:06:16;;;;;;;19.75;4.30;;;;;;;8.42;90.88;100095.81;5035925;28;20067;-78
2023/03/25 07:08:41;;;;;;;22.27;3.80;;;;;;;8.44;90.97;100087.66;5043207;28;20021;-77
2023/03/25 07:11:07;;;;;;;15.60;3.88;;;;;;;8.44;90.79;100091.22;5043031;28;20519;-77
2023/03/25 07:13:32;;;;;;;17.90;4.03;;;;;;;8.46;91.71;100085.75;5037271;28;20051;-77
2023/03/25 07:16:01;;;;;;;14.20;2.95;;;;;;;8.49;90.97;100098.91;5025684;28;20092;-77
2023/03/25 07:18:27;;;;;;;18.30;4.03;;;;;;;8.52;92.82;100093.31;5044934;28;20128;-78
2023/03/25 07:20:53;;;;;;;17.83;3.65;;;;;;;8.55;92.38;100088.59;5047205;28;20374;-77
2023/03/25 07:23:19;;;;;;;16.08;3.30;;;;;;;8.54;92.24;100089.53;5046106;28;20480;-75
2023/03/25 07:25:44;;;;;;;17.90;3.53;;;;;;;8.54;93.34;100086.03;5043076;28;20027;-75
2023/03/25 07:28:10;;;;;;;16.65;3.47;;;;;;;8.55;92.75;100095.75;5046367;28;20032;-75
2023/03/25 07:30:35;;;;;;;14.63;3.65;;;;;;;8.54;93.43;100089.53;5039026;28;20036;-75
2023/03/25 07:33:00;;;;;;;18.40;3.33;;;;;;;8.54;94.10;100091.38;5037287;28;20283;-75
2023/03/25 07:35:26;;;;;;;13.45;3.03;;;;;;;8.52;93.34;100104.03;5042066;28;20017;-76
2023/03/25 07:37:51;;;;;;;12.93;3.53;;;;;;;8.51;94.57;100107.69;5036506;28;20056;-76
2023/03/25 07:40:16;;;;;;;17.23;3.95;;;;;;;8.50;95.35;100105.97;5039172;28;20025;-75
2023/03/25 07:42:43;;;;;;;18.95;3.97;;;;;;;8.49;94.78;100109.63;5036506;28;20020;-75
2023/03/25 07:45:09;;;;;;;14.73;3.03;;;;;;;8.46;94.59;100110.69;5036698;28;20080;-76
2023/03/25 07:47:35;;;;;;;19.05;3.92;;;;;;;8.44;94.95;100111.78;5047235;28;20283;-75
2023/03/25 07:50:00;;;;;;;18.10;3.97;;;;;;;8.42;94.83;100114.56;5036778;28;20029;-76
2023/03/25 07:52:26;;;;;;;17.17;3.70;;;;;;;8.43;95.50;100107.38;5040765;28;20370;-75
2023/03/25 07:54:51;;;;;;;15.70;3.53;;;;;;;8.42;95.64;100113.69;5029750;28;20037;-75
2023/03/25 07:57:16;;;;;;;20.17;3.88;;;;;;;8.43;95.38;100110.06;5034669;28;20034;-75
2023/03/25 07:59:42;;;;;;;13.73;3.13;;;;;;;8.46;94.87;100113.38;5033840;28;20100;-75
2023/03/25 08:02:11;;;;;;;22.92;4.25;;;;;;;8.52;95.69;100118.28;5040682;28;20033;-75
2023/03/25 08:04:37;;;;;;;20.52;3.45;;;;;;;8.62;95.45;100120.25;5032963;28;20484;-75
2023/03/25 08:07:02;;;;;;;18.50;3.92;;;;;;;8.72;94.44;100119.41;5044668;28;20112;-75
2023/03/25 08:09:28;;;;;;;14.77;3.35;;;;;;;8.84;93.71;100130.16;5037739;28;20108;-76
2023/03/25 08:11:53;;;;;;;16.90;3.70;;;;;;;8.96;94.56;100136.38;5041515;28;20148;-76
2023/03/25 08:14:19;;;;;;;17.45;3.50;;;;;;;9.01;92.96;100132.38;5028596;28;20376;-76
2023/03/25 08:16:45;;;;;;;15.30;3.28;;;;;;;9.06;92.88;100143.59;5036095;28;20499;-76
2023/03/25 08:19:10;;;;;;;14.23;3.53;;;;;;;9.12;93.20;100136.03;5013473;28;20033;-76
2023/03/25 08:21:36;;;;;;;13.38;2.95;;;;;;;9.12;93.56;100144.91;5024500;28;20494;-76
2023/03/25 08:24:03;;;;;;;16.23;3.55;;;;;;;9.11;95.29;100151.28;5026644;28;20041;-76
2023/03/25 08:26:30;;;;;;;19.90;4.47;;;;;;;9.10;94.69;100139.69;5026256;28;20480;-76
2023/03/25 08:28:56;;;;;;;21.75;4.40;;;;;;;9.07;95.48;100149.81;5038020;28;20029;-76
2023/03/25 08:31:29;;;;;;;18.42;4.13;;;;;;;9.06;96.53;100159.69;5041069;28;20700;-76
2023/03/25 08:33:59;;;;;;;15.63;3.78;;;;;;;9.02;98.63;100160.91;5044721;28;20411;-76
2023/03/25 08:36:25;;;;;;;15.02;3.63;;;;;;;8.98;98.57;100162.09;5037538;28;20465;-76
2023/03/25 08:38:50;;;;;;;16.45;4.25;;;;;;;8.97;98.88;100156.84;5041027;28;20032;-76
2023/03/25 08:41:17;;;;;;;20.92;4.25;;;;;;;8.91;100.00;100159.03;5027074;28;20033;-76
2023/03/25 08:43:42;;;;;;;19.38;4.05;;;;;;;8.91;100.00;100167.06;5035093;28;20099;-76
2023/03/25 08:46:07;;;;;;;21.42;4.50;;;;;;;8.89;99.84;100163.66;5041189;28;20428;-76
2023/03/25 08:48:33;;;;;;;13.88;3.20;;;;;;;8.93;100.00;100161.59;5037684;28;20022;-74
2023/03/25 08:50:58;;;;;;;16.33;4.38;;;;;;;8.96;100.00;100156.00;5040398;28;20034;-76
2023/03/25 08:53:24;;;;;;;22.70;4.43;;;;;;;9.02;100.00;100149.28;5035725;28;20481;-76
2023/03/25 08:55:55;;;;;;;25.75;4.38;;;;;;;9.08;100.00;100160.41;5033507;28;20021;-76
2023/03/25 08:58:21;;;;;;;22.42;4.20;;;;;;;9.13;100.00;100153.84;5032574;28;20025;-76
2023/03/25 09:00:46;;;;;;;22.38;4.65;;;;;;;9.14;100.00;100153.72;5036265;28;20071;-76
2023/03/25 09:03:12;;;;;;;21.45;4.85;;;;;;;9.14;100.00;100155.56;5022839;28;20068;-76
2023/03/25 09:05:38;;;;;;;17.90;4.10;;;;;;;9.16;100.00;100156.28;5045472;28;20025;-76
2023/03/25 09:08:04;;;;;;;18.75;3.72;;;;;;;9.18;99.46;100157.00;5037903;28;20047;-76
2023/03/25 09:10:29;;;;;;;18.50;4.55;;;;;;;9.21;100.00;100157.63;5021813;28;20045;-76
2023/03/25 09:12:55;;;;;;;20.50;4.05;;;;;;;9.29;100.00;100154.31;5035525;28;20029;-76
2023/03/25 09:15:20;;;;;;;27.20;5.45;;;;;;;9.35;99.36;100158.34;5040190;28;20040;-76
2023/03/25 09:17:46;;;;;;;19.65;4.32;;;;;;;9.39;98.54;100152.63;5039159;28;20032;-76
2023/03/25 09:20:11;;;;;;;25.25;5.13;;;;;;;9.43;98.80;100156.78;5036326;28;20103;-76
2023/03/25 09:22:37;;;;;;;20.80;4.80;;;;;;;9.48;98.18;100158.25;5041145;28;20496;-76
2023/03/25 09:25:05;;;;;;;22.35;5.13;;;;;;;9.57;97.32;100154.81;5030502;28;20025;-76
2023/03/25 09:27:30;;;;;;;20.13;4.85;;;;;;;9.67;97.72;100150.41;5033383;28;20382;-76
2023/03/25 09:29:56;;;;;;;26.70;4.88;;;;;;;9.69;96.31;100153.81;5041180;28;20039;-76
2023/03/25 09:32:21;;;;;;;20.40;4.68;;;;;;;9.77;96.59;100162.09;5030937;28;20029;-76
2023/03/25 09:34:47;;;;;;;19.15;4.47;;;;;;;9.88;95.79;100163.06;5026612;28;20025;-76
2023/03/25 09:37:12;;;;;;;24.15;4.68;;;;;;;9.96;96.50;100166.81;5025504;28;20196;-76
2023/03/25 09:39:37;;;;;;;25.75;4.72;;;;;;;10.04;96.08;100162.66;5042416;28;20127;-76
2023/03/25 09:42:20;;;;;;;18.58;4.03;;;;;;;10.11;93.70;100170.06;5041280;28;20457;-76
2023/03/25 09:45:16;;;;;;;25.17;4.25;;;;;;;10.18;94.47;100177.66;5031490;28;20104;-76
2023/03/25 09:48:01;;;;;;;20.75;4.43;;;;;;;10.24;94.04;100161.03;5040000;28;20472;-75
2023/03/25 09:50:30;;;;;;;19.08;4.63;;;;;;;10.30;90.84;100184.69;5038386;28;20055;-76
2023/03/25 09:53:03;;;;;;;23.35;4.45;;;;;;;10.34;90.82;100175.44;5031253;28;20163;-76
2023/03/25 09:55:34;;;;;;;18.33;4.45;;;;;;;10.39;89.76;100183.94;5039137;28;20033;-76
2023/03/25 09:58:12;;;;;;;25.00;5.15;;;;;;;10.43;92.02;100166.59;5029514;28;20032;-76
2023/03/25 10:00:38;;;;;;;18.83;5.00;;;;;;;10.46;90.61;100174.38;5038689;28;20056;-76
2023/03/25 10:03:24;;;;;;;23.33;5.30;;;;;;;10.59;92.08;100176.06;5043282;28;20477;-75
2023/03/25 10:06:19;;;;;;;20.90;4.78;;;;;;;10.63;88.83;100172.09;5039682;28;20026;-76
2023/03/25 10:09:09;;;;;;;19.95;5.05;;;;;;;10.68;91.33;100182.50;5042355;28;20029;-76
2023/03/25 10:11:58;;;;;;;19.08;4.55;;;;;;;10.78;89.29;100176.19;5033726;28;20026;-76
2023/03/25 10:14:48;;;;;;;24.52;5.82;;;;;;;10.90;89.70;100181.50;5032124;28;20096;-76
2023/03/25 10:17:36;;;;;;;15.75;4.07;;;;;;;10.99;88.46;100159.22;5042840;28;20059;-76
2023/03/25 10:20:23;;;;;;;22.08;5.03;;;;;;;11.08;87.40;100160.25;5015161;28;20049;-76
2023/03/25 10:23:04;;;;;;;23.85;5.30;;;;;;;11.16;87.56;100176.59;5018943;28;20033;-76
2023/03/25 10:25:33;;;;;;;22.67;5.22;;;;;;;11.24;85.75;100179.44;5007895;28;20096;-76
2023/03/25 10:27:59;;;;;;;22.05;4.82;;;;;;;11.21;83.54;100178.88;5000280;28;20120;-76
2023/03/25 10:30:31;;;;;;;25.80;5.03;;;;;;;11.14;82.75;100174.03;5003657;28;20037;-76
2023/03/25 10:33:09;;;;;;;22.65;5.40;;;;;;;11.15;85.00;100181.09;5017468;28;20425;-76
2023/03/25 10:35:39;;;;;;;19.77;4.97;;;;;;;11.11;83.17;100182.38;5000842;28;20484;-76
2023/03/25 10:38:19;;;;;;;20.13;4.25;;;;;;;11.09;83.97;100172.72;5000115;28;20045;-76
2023/03/25 10:40:48;;;;;;;17.00;4.78;;;;;;;11.05;82.00;100169.44;5012068;28;20029;-76
2023/03/25 10:43:30;;;;;;;23.85;5.40;;;;;;;11.08;81.95;100190.66;5002052;28;20029;-76
2023/03/25 10:46:10;;;;;;;14.98;4.43;;;;;;;11.14;81.43;100173.16;5008498;28;20600;-76
2023/03/25 10:48:36;;;;;;;26.23;5.15;;;;;;;11.16;80.24;100190.03;5017862;28;20032;-76
2023/03/25 10:51:15;;;;;;;23.40;5.00;;;;;;;11.25;80.00;100174.94;4999028;28;20204;-76
2023/03/25 10:53:44;;;;;;;20.10;4.72;;;;;;;11.31;78.43;100191.38;5015879;28;20496;-75
2023/03/25 10:56:17;;;;;;;20.15;4.25;;;;;;;11.36;76.73;100182.91;5022486;28;20691;-76
2023/03/25 10:58:48;;;;;;;14.55;4.07;;;;;;;11.44;77.96;100185.78;5041014;28;20063;-76
2023/03/25 11:01:20;;;;;;;19.05;4.00;;;;;;;11.56;76.39;100188.38;5038495;28;20026;-75
2023/03/25 11:03:52;;;;;;;19.90;3.90;;;;;;;11.62;72.49;100187.84;5039282;28;20044;-76
2023/03/25 11:06:28;;;;;;;22.27;4.28;;;;;;;11.66;71.74;100179.34;5040380;28;20033;-76
2023/03/25 11:09:14;;;;;;;19.27;4.32;;;;;;;11.67;73.92;100190.97;5038567;28;20036;-76
2023/03/25 11:11:40;;;;;;;19.70;4.10;;;;;;;11.64;70.68;100199.31;5037126;28;20018;-76
2023/03/25 11:14:06;;;;;;;21.73;4.07;;;;;;;11.63;69.84;100194.94;5038913;28;20021;-76
2023/03/25 11:16:34;;;;;;;17.85;3.70;;;;;;;11.66;70.16;100184.75;5041511;28;20033;-76
2023/03/25 11:19:02;;;;;;;17.30;2.53;;;;;;;11.65;66.82;100201.88;5039673;28;20087;-76
2023/03/25 11:21:33;;;;;;;11.98;3.03;;;;;;;11.65;67.70;100201.88;5038020;28;20045;-76
2023/03/25 11:23:59;;;;;;;13.23;2.80;;;;;;;11.66;68.30;100203.59;5034494;28;20120;-76
2023/03/25 11:26:35;;;;;;;15.77;3.17;;;;;;;11.73;67.39;100187.75;5029887;28;20455;-76
2023/03/25 11:29:06;;;;;;;16.30;3.83;;;;;;;11.78;67.40;100203.50;5015119;28;20038;-76
2023/03/25 11:31:36;;;;;;;16.63;3.30;;;;;;;11.77;64.71;100204.47;5036006;28;20506;-76
2023/03/25 11:34:03;;;;;;;12.60;2.83;;;;;;;11.78;64.36;100207.03;5028234;28;20060;-76
2023/03/25 11:36:31;;;;;;;18.77;2.90;;;;;;;11.83;66.87;100199.41;5038861;28;20183;-76
2023/03/25 11:39:00;;;;;;;18.27;3.35;;;;;;;11.84;65.55;100203.78;5032835;28;20484;-76